No particular awareness of the weather is required.    There are no Weather-warnings


Meteo18 Weather Cam more information Meteo18 Weather Cam


Thunder radar more information blitzortung!


Rain radar more information rain snow radar


Visit our other weather sites:

Template documentation
and downloads

And another site



Weather Underground History page Text

Daily Summary for May 25, 2016 Units:  Metric    English   Both
« Previous Day
Next Day »
Daily Weekly Monthly Yearly Custom
  High: Low: Average:
Temperature: 22.7 °C 6.3 °C 14.5 °C
Dew Point: 14.8 °C 5.7 °C 10.4 °C
Humidity: 98 % 47 % 79 %
Wind Speed: 6.4 km/h 0.0 km/h 0.5 km/h
Wind Gust: 8.0 km/h - -
Wind:- - SE
Pressure: 1013.4 hPa 1011.4 hPa -
Precipitation: 0.0 mm    
Historical Graphs
 
 
Tabular Data for May 25, 2016
Time Temperature Dew Point Pressure Wind Wind Speed Wind Gust Humidity Rainfall Rate (Hourly)
00:02 9.1 °C 8.0 °C 1013.4 hPa Calm   3.2 km/h 93 % 0.0 mm
00:07 8.9 °C 7.8 °C 1013.4 hPa Calm   3.2 km/h 93 % 0.0 mm
00:12 8.9 °C 7.8 °C 1013.4 hPa Calm   4.8 km/h 93 % 0.0 mm
00:17 8.8 °C 7.9 °C 1013.4 hPa SE 1.6 km/h 4.8 km/h 94 % 0.0 mm
00:22 8.9 °C 8.0 °C 1013.4 hPa NE 3.2 km/h 4.8 km/h 94 % 0.0 mm
00:27 8.9 °C 8.0 °C 1013.4 hPa Calm   4.8 km/h 94 % 0.0 mm
00:32 8.8 °C 7.9 °C 1013.4 hPa NE 1.6 km/h 4.8 km/h 94 % 0.0 mm
00:37 8.8 °C 7.9 °C 1013.4 hPa Calm   4.8 km/h 94 % 0.0 mm
00:47 8.7 °C 7.8 °C 1013.4 hPa Calm   4.8 km/h 94 % 0.0 mm
00:52 8.7 °C 7.8 °C 1013.4 hPa East 1.6 km/h 3.2 km/h 94 % 0.0 mm
00:57 8.7 °C 7.8 °C 1013.4 hPa ENE 1.6 km/h 4.8 km/h 94 % 0.0 mm
01:07 8.7 °C 7.8 °C 1013.4 hPa Calm   4.8 km/h 94 % 0.0 mm
01:17 8.8 °C 7.9 °C 1013.4 hPa Calm   6.4 km/h 94 % 0.0 mm
01:22 8.8 °C 7.9 °C 1013.4 hPa Calm   6.4 km/h 94 % 0.0 mm
01:27 8.7 °C 7.8 °C 1013.1 hPa NNE 3.2 km/h 4.8 km/h 94 % 0.0 mm
01:32 8.7 °C 7.8 °C 1013.1 hPa NNE 1.6 km/h 4.8 km/h 94 % 0.0 mm
01:37 8.7 °C 7.8 °C 1013.4 hPa Calm   4.8 km/h 94 % 0.0 mm
01:42 8.7 °C 7.8 °C 1013.4 hPa NNE 3.2 km/h 4.8 km/h 94 % 0.0 mm
01:47 8.8 °C 7.9 °C 1013.4 hPa NNE 1.6 km/h 4.8 km/h 94 % 0.0 mm
01:52 8.8 °C 7.9 °C 1013.4 hPa Calm   4.8 km/h 94 % 0.0 mm
01:57 8.7 °C 7.8 °C 1013.4 hPa NE 1.6 km/h 4.8 km/h 94 % 0.0 mm
02:02 8.6 °C 7.7 °C 1013.4 hPa Calm   3.2 km/h 94 % 0.0 mm
02:07 8.6 °C 7.7 °C 1013.4 hPa NNE 1.6 km/h 4.8 km/h 94 % 0.0 mm
02:12 8.6 °C 7.7 °C 1013.4 hPa NE 3.2 km/h 4.8 km/h 94 % 0.0 mm
02:17 8.4 °C 7.5 °C 1013.1 hPa Calm   4.8 km/h 94 % 0.0 mm
02:22 8.3 °C 7.4 °C 1013.1 hPa Calm   4.8 km/h 94 % 0.0 mm
02:27 8.2 °C 7.3 °C 1013.1 hPa Calm   4.8 km/h 94 % 0.0 mm
02:32 8.1 °C 7.2 °C 1013.1 hPa Calm   4.8 km/h 94 % 0.0 mm
02:37 8.1 °C 7.3 °C 1013.1 hPa Calm   3.2 km/h 95 % 0.0 mm
02:42 8.1 °C 7.3 °C 1013.1 hPa Calm   3.2 km/h 95 % 0.0 mm
02:47 8.1 °C 7.3 °C 1012.8 hPa Calm   3.2 km/h 95 % 0.0 mm
02:52 8.0 °C 7.2 °C 1012.8 hPa Calm   1.6 km/h 95 % 0.0 mm
02:57 7.9 °C 7.1 °C 1012.8 hPa Calm   1.6 km/h 95 % 0.0 mm
03:02 7.8 °C 7.0 °C 1012.8 hPa Calm   1.6 km/h 95 % 0.0 mm
03:07 7.7 °C 6.9 °C 1012.8 hPa Calm   1.6 km/h 95 % 0.0 mm
03:12 7.6 °C 6.9 °C 1012.8 hPa Calm   1.6 km/h 95 % 0.0 mm
03:17 7.3 °C 6.4 °C 1012.8 hPa Calm   1.6 km/h 94 % 0.0 mm
03:22 7.1 °C 6.2 °C 1012.8 hPa Calm   1.6 km/h 94 % 0.0 mm
03:27 6.9 °C 6.2 °C 1012.8 hPa Calm     95 % 0.0 mm
03:32 6.8 °C 6.1 °C 1012.8 hPa Calm     95 % 0.0 mm
03:37 6.8 °C 6.1 °C 1012.8 hPa Calm     95 % 0.0 mm
03:42 6.7 °C 6.0 °C 1012.8 hPa Calm     95 % 0.0 mm
03:47 6.7 °C 6.0 °C 1012.8 hPa Calm     95 % 0.0 mm
03:52 6.7 °C 6.1 °C 1012.8 hPa Calm     96 % 0.0 mm
03:57 6.8 °C 6.2 °C 1012.8 hPa Calm     96 % 0.0 mm
04:02 6.8 °C 6.2 °C 1012.8 hPa Calm     96 % 0.0 mm
04:07 6.8 °C 6.2 °C 1012.8 hPa Calm   1.6 km/h 96 % 0.0 mm
04:12 6.8 °C 6.2 °C 1012.4 hPa Calm   1.6 km/h 96 % 0.0 mm
04:17 6.8 °C 6.2 °C 1012.8 hPa Calm   1.6 km/h 96 % 0.0 mm
04:22 6.7 °C 6.1 °C 1012.8 hPa Calm     96 % 0.0 mm
04:32 6.4 °C 5.8 °C 1012.4 hPa Calm     96 % 0.0 mm
04:37 6.3 °C 5.7 °C 1012.4 hPa Calm     96 % 0.0 mm
04:42 6.5 °C 6.1 °C 1012.4 hPa Calm     97 % 0.0 mm
04:47 6.6 °C 6.2 °C 1012.8 hPa Calm     97 % 0.0 mm
04:52 6.6 °C 6.2 °C 1012.8 hPa Calm     97 % 0.0 mm
05:02 6.6 °C 6.2 °C 1012.4 hPa Calm     97 % 0.0 mm
05:12 6.5 °C 5.9 °C 1012.4 hPa Calm     96 % 0.0 mm
05:17 6.7 °C 6.3 °C 1012.4 hPa Calm   1.6 km/h 97 % 0.0 mm
05:22 6.7 °C 6.3 °C 1012.4 hPa Calm   1.6 km/h 97 % 0.0 mm
05:27 6.7 °C 6.3 °C 1012.4 hPa Calm   1.6 km/h 97 % 0.0 mm
05:32 6.7 °C 6.3 °C 1012.4 hPa Calm   1.6 km/h 97 % 0.0 mm
05:37 6.7 °C 6.3 °C 1012.4 hPa Calm   1.6 km/h 97 % 0.0 mm
05:42 6.6 °C 6.2 °C 1012.4 hPa Calm     97 % 0.0 mm
05:47 6.7 °C 6.3 °C 1012.4 hPa Calm     97 % 0.0 mm
05:52 6.7 °C 6.3 °C 1012.1 hPa Calm     97 % 0.0 mm
05:57 6.8 °C 6.4 °C 1012.1 hPa Calm     97 % 0.0 mm
06:02 6.8 °C 6.4 °C 1012.1 hPa Calm     97 % 0.0 mm
06:07 6.8 °C 6.4 °C 1012.4 hPa Calm     97 % 0.0 mm
06:12 6.8 °C 6.4 °C 1012.4 hPa Calm     97 % 0.0 mm
06:22 6.7 °C 6.3 °C 1012.4 hPa Calm     97 % 0.0 mm
06:32 6.5 °C 6.1 °C 1012.4 hPa Calm     97 % 0.0 mm
06:37 6.6 °C 6.2 °C 1012.4 hPa Calm     97 % 0.0 mm
06:42 6.6 °C 6.2 °C 1012.1 hPa Calm     97 % 0.0 mm
06:47 6.5 °C 6.1 °C 1012.1 hPa Calm     97 % 0.0 mm
06:52 6.4 °C 6.0 °C 1012.4 hPa Calm     97 % 0.0 mm
06:57 6.4 °C 6.0 °C 1012.4 hPa Calm     97 % 0.0 mm
07:07 6.4 °C 6.0 °C 1012.4 hPa Calm     97 % 0.0 mm
07:12 6.4 °C 6.0 °C 1012.4 hPa Calm     97 % 0.0 mm
07:17 6.6 °C 6.2 °C 1012.4 hPa Calm     97 % 0.0 mm
07:22 7.2 °C 6.9 °C 1012.4 hPa Calm     98 % 0.0 mm
07:27 7.4 °C 7.1 °C 1012.4 hPa Calm     98 % 0.0 mm
07:37 7.9 °C 7.6 °C 1012.4 hPa Calm     98 % 0.0 mm
07:42 8.2 °C 7.9 °C 1012.4 hPa Calm   3.2 km/h 98 % 0.0 mm
07:47 8.4 °C 8.1 °C 1012.4 hPa Calm   3.2 km/h 98 % 0.0 mm
07:52 8.6 °C 8.3 °C 1012.4 hPa Calm   3.2 km/h 98 % 0.0 mm
08:02 8.9 °C 8.6 °C 1012.4 hPa Calm   4.8 km/h 98 % 0.0 mm
08:07 9.2 °C 8.9 °C 1012.4 hPa Calm   4.8 km/h 98 % 0.0 mm
08:12 9.4 °C 9.1 °C 1012.4 hPa Calm   4.8 km/h 98 % 0.0 mm
08:17 9.6 °C 9.3 °C 1012.4 hPa Calm   4.8 km/h 98 % 0.0 mm
08:22 9.7 °C 9.4 °C 1012.4 hPa Calm   6.4 km/h 98 % 0.0 mm
08:32 9.8 °C 9.3 °C 1012.4 hPa Calm   6.4 km/h 97 % 0.0 mm
08:37 9.9 °C 9.4 °C 1012.4 hPa Calm   3.2 km/h 97 % 0.0 mm
08:42 10.2 °C 9.7 °C 1012.4 hPa Calm   3.2 km/h 97 % 0.0 mm
08:52 10.6 °C 10.0 °C 1012.4 hPa WSW 1.6 km/h 3.2 km/h 96 % 0.0 mm
08:57 10.7 °C 10.1 °C 1012.4 hPa Calm   3.2 km/h 96 % 0.0 mm
09:02 11.2 °C 10.6 °C 1012.4 hPa Calm   3.2 km/h 96 % 0.0 mm
09:07 11.8 °C 10.9 °C 1012.4 hPa Calm   3.2 km/h 94 % 0.0 mm
09:17 12.6 °C 11.2 °C 1012.4 hPa Calm   3.2 km/h 91 % 0.0 mm
09:22 12.8 °C 10.7 °C 1012.4 hPa Calm   3.2 km/h 87 % 0.0 mm
09:27 13.0 °C 10.7 °C 1012.4 hPa Calm   6.4 km/h 86 % 0.0 mm
09:32 13.3 °C 11.2 °C 1012.4 hPa ENE 4.8 km/h 6.4 km/h 87 % 0.0 mm
09:37 13.8 °C 11.7 °C 1012.4 hPa Calm   6.4 km/h 87 % 0.0 mm
09:42 14.2 °C 11.7 °C 1012.8 hPa Calm   6.4 km/h 85 % 0.0 mm
09:47 14.4 °C 11.4 °C 1012.8 hPa Calm   4.8 km/h 82 % 0.0 mm
09:57 14.9 °C 11.7 °C 1012.4 hPa Calm   6.4 km/h 81 % 0.0 mm
10:02 15.2 °C 11.6 °C 1012.4 hPa Calm   6.4 km/h 79 % 0.0 mm
10:12 15.9 °C 11.9 °C 1012.4 hPa Calm   4.8 km/h 77 % 0.0 mm
10:22 16.3 °C 12.1 °C 1012.1 hPa NE 1.6 km/h 4.8 km/h 76 % 0.0 mm
10:27 16.2 °C 11.8 °C 1012.1 hPa Calm   6.4 km/h 75 % 0.0 mm
10:32 16.2 °C 11.4 °C 1012.1 hPa ENE 1.6 km/h 6.4 km/h 73 % 0.0 mm
10:37 16.1 °C 11.5 °C 1012.1 hPa NE 3.2 km/h 6.4 km/h 74 % 0.0 mm
10:42 16.3 °C 12.1 °C 1012.1 hPa Calm   6.4 km/h 76 % 0.0 mm
10:47 16.7 °C 11.6 °C 1012.1 hPa Calm   6.4 km/h 72 % 0.0 mm
10:52 17.2 °C 12.1 °C 1012.1 hPa Calm   4.8 km/h 72 % 0.0 mm
10:57 17.7 °C 12.8 °C 1012.1 hPa NE 3.2 km/h 3.2 km/h 73 % 0.0 mm
11:02 17.6 °C 11.6 °C 1012.1 hPa ESE 1.6 km/h 8.0 km/h 68 % 0.0 mm
11:07 17.8 °C 12.5 °C 1012.1 hPa Calm   8.0 km/h 71 % 0.0 mm
11:12 18.1 °C 12.1 °C 1012.1 hPa WNW 1.6 km/h 8.0 km/h 68 % 0.0 mm
11:17 18.3 °C 11.8 °C 1012.4 hPa ENE 1.6 km/h 6.4 km/h 66 % 0.0 mm
11:22 18.4 °C 11.5 °C 1012.1 hPa Calm   6.4 km/h 64 % 0.0 mm
11:27 18.6 °C 11.7 °C 1012.1 hPa Calm   6.4 km/h 64 % 0.0 mm
11:32 18.7 °C 11.8 °C 1012.1 hPa SW 1.6 km/h 8.0 km/h 64 % 0.0 mm
11:37 19.1 °C 12.4 °C 1012.1 hPa SSW 1.6 km/h 8.0 km/h 65 % 0.0 mm
11:42 19.3 °C 12.3 °C 1012.1 hPa Calm   8.0 km/h 64 % 0.0 mm
11:47 19.3 °C 11.1 °C 1012.1 hPa West 1.6 km/h 4.8 km/h 59 % 0.0 mm
11:57 18.8 °C 11.6 °C 1012.1 hPa NE 4.8 km/h 4.8 km/h 63 % 0.0 mm
12:02 18.8 °C 11.8 °C 1012.1 hPa NE 1.6 km/h 8.0 km/h 64 % 0.0 mm
12:07 18.8 °C 11.6 °C 1012.1 hPa SE 3.2 km/h 8.0 km/h 63 % 0.0 mm
12:12 18.8 °C 11.1 °C 1012.1 hPa North 1.6 km/h 8.0 km/h 61 % 0.0 mm
12:22 18.9 °C 12.2 °C 1012.1 hPa Calm   4.8 km/h 65 % 0.0 mm
12:27 19.4 °C 11.9 °C 1011.7 hPa ENE 3.2 km/h 4.8 km/h 62 % 0.0 mm
12:32 19.8 °C 12.6 °C 1011.7 hPa Calm   4.8 km/h 63 % 0.0 mm
12:37 19.9 °C 12.6 °C 1011.7 hPa NE 4.8 km/h 4.8 km/h 63 % 0.0 mm
12:42 19.9 °C 11.9 °C 1011.7 hPa East 1.6 km/h 8.0 km/h 60 % 0.0 mm
12:47 19.5 °C 12.3 °C 1011.7 hPa Calm   8.0 km/h 63 % 0.0 mm
12:52 19.7 °C 12.0 °C 1011.7 hPa Calm   8.0 km/h 61 % 0.0 mm
12:57 19.7 °C 11.5 °C 1011.7 hPa Calm   8.0 km/h 59 % 0.0 mm
13:02 19.7 °C 11.7 °C 1011.7 hPa Calm   6.4 km/h 60 % 0.0 mm
13:07 19.5 °C 12.0 °C 1011.7 hPa NE 6.4 km/h 6.4 km/h 62 % 0.0 mm
13:12 19.4 °C 11.7 °C 1011.7 hPa Calm   8.0 km/h 61 % 0.0 mm
13:17 19.6 °C 11.9 °C 1011.7 hPa Calm   8.0 km/h 61 % 0.0 mm
13:22 19.6 °C 11.6 °C 1011.7 hPa NE 3.2 km/h 8.0 km/h 60 % 0.0 mm
13:27 19.5 °C 11.8 °C 1011.7 hPa Calm   4.8 km/h 61 % 0.0 mm
13:32 19.7 °C 12.0 °C 1011.7 hPa Calm   3.2 km/h 61 % 0.0 mm
13:37 20.1 °C 12.3 °C 1011.7 hPa SE 1.6 km/h 3.2 km/h 61 % 0.0 mm
13:42 20.1 °C 11.8 °C 1011.7 hPa Calm   4.8 km/h 59 % 0.0 mm
13:47 20.2 °C 10.9 °C 1011.7 hPa Calm   4.8 km/h 55 % 0.0 mm
13:52 20.0 °C 11.5 °C 1011.7 hPa East 1.6 km/h 4.8 km/h 58 % 0.0 mm
13:57 19.9 °C 12.4 °C 1011.7 hPa ENE 4.8 km/h 4.8 km/h 62 % 0.0 mm
14:02 19.8 °C 12.1 °C 1011.7 hPa East 1.6 km/h 4.8 km/h 61 % 0.0 mm
14:12 19.6 °C 12.1 °C 1011.7 hPa Calm   6.4 km/h 62 % 0.0 mm
14:17 19.7 °C 12.5 °C 1011.7 hPa Calm   6.4 km/h 63 % 0.0 mm
14:22 20.0 °C 13.5 °C 1011.7 hPa ESE 3.2 km/h 3.2 km/h 66 % 0.0 mm
14:32 19.9 °C 11.9 °C 1011.7 hPa NE 3.2 km/h 8.0 km/h 60 % 0.0 mm
14:37 19.5 °C 11.8 °C 1011.7 hPa Calm   8.0 km/h 61 % 0.0 mm
14:42 19.5 °C 12.0 °C 1011.7 hPa NNE 1.6 km/h 8.0 km/h 62 % 0.0 mm
14:47 19.7 °C 12.5 °C 1011.7 hPa Calm   6.4 km/h 63 % 0.0 mm
14:52 20.0 °C 12.5 °C 1011.7 hPa Calm   4.8 km/h 62 % 0.0 mm
14:57 20.3 °C 12.3 °C 1011.7 hPa Calm   4.8 km/h 60 % 0.0 mm
15:02 20.4 °C 11.6 °C 1011.7 hPa WNW 1.6 km/h 3.2 km/h 57 % 0.0 mm
15:07 20.3 °C 12.3 °C 1011.7 hPa Calm   3.2 km/h 60 % 0.0 mm
15:12 20.2 °C 11.4 °C 1011.7 hPa NW 1.6 km/h 4.8 km/h 57 % 0.0 mm
15:17 20.3 °C 11.5 °C 1011.7 hPa Calm   4.8 km/h 57 % 0.0 mm
15:22 20.7 °C 12.4 °C 1011.7 hPa Calm   4.8 km/h 59 % 0.0 mm
15:27 20.7 °C 11.6 °C 1011.7 hPa NNW 3.2 km/h 8.0 km/h 56 % 0.0 mm
15:37 21.2 °C 11.8 °C 1011.7 hPa Calm   8.0 km/h 55 % 0.0 mm
15:42 21.4 °C 11.1 °C 1011.7 hPa Calm   4.8 km/h 52 % 0.0 mm
15:47 21.6 °C 11.9 °C 1011.7 hPa Calm   3.2 km/h 54 % 0.0 mm
15:52 21.5 °C 11.8 °C 1011.7 hPa Calm   6.4 km/h 54 % 0.0 mm
15:57 21.6 °C 11.3 °C 1011.7 hPa Calm   6.4 km/h 52 % 0.0 mm
16:07 22.1 °C 12.4 °C 1011.7 hPa Calm   4.8 km/h 54 % 0.0 mm
16:12 22.2 °C 11.0 °C 1011.7 hPa Calm   4.8 km/h 49 % 0.0 mm
16:17 22.1 °C 11.5 °C 1011.7 hPa Calm   4.8 km/h 51 % 0.0 mm
16:22 22.2 °C 11.6 °C 1011.4 hPa Calm   4.8 km/h 51 % 0.0 mm
16:27 22.4 °C 11.8 °C 1011.4 hPa Calm   4.8 km/h 51 % 0.0 mm
16:32 22.4 °C 12.1 °C 1011.4 hPa North 3.2 km/h 3.2 km/h 52 % 0.0 mm
16:37 22.1 °C 10.6 °C 1011.4 hPa Calm   4.8 km/h 48 % 0.0 mm
16:42 22.4 °C 11.2 °C 1011.4 hPa WSW 1.6 km/h 4.8 km/h 49 % 0.0 mm
16:47 22.3 °C 10.8 °C 1011.4 hPa Calm   4.8 km/h 48 % 0.0 mm
16:52 22.2 °C 11.9 °C 1011.4 hPa WSW 1.6 km/h 4.8 km/h 52 % 0.0 mm
16:57 22.4 °C 13.2 °C 1011.4 hPa Calm   4.8 km/h 56 % 0.0 mm
17:02 22.4 °C 11.2 °C 1011.4 hPa Calm   4.8 km/h 49 % 0.0 mm
17:07 22.7 °C 11.1 °C 1011.4 hPa NW 1.6 km/h 3.2 km/h 48 % 0.0 mm
17:12 22.5 °C 10.6 °C 1011.4 hPa Calm   6.4 km/h 47 % 0.0 mm
17:17 22.2 °C 11.6 °C 1011.4 hPa Calm   6.4 km/h 51 % 0.0 mm
17:22 22.2 °C 11.3 °C 1011.4 hPa West 3.2 km/h 6.4 km/h 50 % 0.0 mm
17:27 22.2 °C 11.3 °C 1011.4 hPa Calm   6.4 km/h 50 % 0.0 mm
17:32 22.1 °C 11.2 °C 1011.4 hPa Calm   4.8 km/h 50 % 0.0 mm
17:37 22.2 °C 10.4 °C 1011.4 hPa Calm   4.8 km/h 47 % 0.0 mm
17:42 22.5 °C 11.3 °C 1011.4 hPa Calm   4.8 km/h 49 % 0.0 mm
17:47 22.1 °C 10.3 °C 1011.4 hPa Calm   3.2 km/h 47 % 0.0 mm
17:52 22.0 °C 10.8 °C 1011.4 hPa Calm   3.2 km/h 49 % 0.0 mm
17:57 21.8 °C 11.2 °C 1011.4 hPa WSW 1.6 km/h 3.2 km/h 51 % 0.0 mm
18:02 21.3 °C 11.9 °C 1011.4 hPa Calm   4.8 km/h 55 % 0.0 mm
18:07 21.1 °C 12.2 °C 1011.4 hPa Calm   4.8 km/h 57 % 0.0 mm
18:12 20.8 °C 11.2 °C 1011.4 hPa Calm   4.8 km/h 54 % 0.0 mm
18:17 20.8 °C 12.2 °C 1011.4 hPa Calm   4.8 km/h 58 % 0.0 mm
18:22 20.9 °C 12.1 °C 1011.4 hPa Calm   1.6 km/h 57 % 0.0 mm
18:32 21.8 °C 11.2 °C 1011.4 hPa Calm     51 % 0.0 mm
18:42 21.7 °C 11.1 °C 1011.4 hPa Calm     51 % 0.0 mm
18:47 21.5 °C 12.6 °C 1011.4 hPa Calm     57 % 0.0 mm
18:52 21.1 °C 12.2 °C 1011.4 hPa Calm     57 % 0.0 mm
19:02 20.9 °C 11.5 °C 1011.4 hPa Calm     55 % 0.0 mm
19:07 20.8 °C 11.4 °C 1011.4 hPa Calm     55 % 0.0 mm
19:12 20.6 °C 12.0 °C 1011.4 hPa Calm     58 % 0.0 mm
19:17 20.5 °C 13.2 °C 1011.4 hPa Calm     63 % 0.0 mm
19:27 20.3 °C 12.3 °C 1011.4 hPa Calm     60 % 0.0 mm
19:37 20.2 °C 13.6 °C 1011.4 hPa Calm     66 % 0.0 mm
19:42 20.1 °C 13.8 °C 1011.4 hPa Calm     67 % 0.0 mm
19:47 20.0 °C 13.7 °C 1011.4 hPa Calm     67 % 0.0 mm
19:52 19.8 °C 13.9 °C 1011.4 hPa Calm     69 % 0.0 mm
19:57 19.7 °C 14.3 °C 1011.4 hPa Calm     71 % 0.0 mm
20:02 19.3 °C 13.5 °C 1011.4 hPa Calm     69 % 0.0 mm
20:07 19.1 °C 14.1 °C 1011.4 hPa Calm     73 % 0.0 mm
20:17 18.6 °C 14.1 °C 1011.7 hPa Calm     75 % 0.0 mm
20:22 18.4 °C 14.5 °C 1011.7 hPa Calm     78 % 0.0 mm
20:27 18.2 °C 14.3 °C 1011.7 hPa Calm     78 % 0.0 mm
20:32 18.1 °C 14.6 °C 1011.7 hPa Calm     80 % 0.0 mm
20:37 17.9 °C 14.2 °C 1011.7 hPa Calm     79 % 0.0 mm
20:42 17.8 °C 14.7 °C 1011.7 hPa Calm     82 % 0.0 mm
20:52 17.4 °C 14.7 °C 1011.7 hPa Calm     84 % 0.0 mm
20:57 17.3 °C 14.8 °C 1011.7 hPa Calm     85 % 0.0 mm
21:02 17.1 °C 14.7 °C 1011.7 hPa Calm     86 % 0.0 mm
21:07 16.9 °C 14.7 °C 1011.7 hPa Calm     87 % 0.0 mm
21:12 16.8 °C 14.4 °C 1012.1 hPa Calm     86 % 0.0 mm
21:17 16.7 °C 14.3 °C 1012.1 hPa Calm     86 % 0.0 mm
21:27 16.4 °C 14.1 °C 1012.1 hPa Calm     86 % 0.0 mm
21:32 16.3 °C 14.0 °C 1012.1 hPa Calm     86 % 0.0 mm
21:37 16.2 °C 13.9 °C 1012.1 hPa Calm     86 % 0.0 mm
21:42 16.1 °C 13.9 °C 1012.1 hPa Calm     87 % 0.0 mm
21:47 16.0 °C 13.8 °C 1012.1 hPa Calm     87 % 0.0 mm
21:57 15.7 °C 13.5 °C 1012.1 hPa Calm     87 % 0.0 mm
22:02 15.6 °C 13.6 °C 1012.1 hPa Calm     88 % 0.0 mm
22:07 15.5 °C 13.5 °C 1012.1 hPa Calm     88 % 0.0 mm
22:12 15.4 °C 13.4 °C 1012.1 hPa Calm     88 % 0.0 mm
22:22 15.3 °C 13.3 °C 1012.4 hPa Calm     88 % 0.0 mm
22:27 15.2 °C 13.4 °C 1012.4 hPa Calm     89 % 0.0 mm
22:32 15.2 °C 13.4 °C 1012.4 hPa Calm     89 % 0.0 mm
22:37 15.1 °C 13.3 °C 1012.4 hPa Calm     89 % 0.0 mm
22:42 15.0 °C 13.2 °C 1012.4 hPa Calm     89 % 0.0 mm
22:47 14.9 °C 13.1 °C 1012.4 hPa Calm     89 % 0.0 mm
22:52 14.9 °C 13.3 °C 1012.4 hPa Calm     90 % 0.0 mm
22:57 14.9 °C 13.3 °C 1012.4 hPa Calm     90 % 0.0 mm
23:02 14.8 °C 13.2 °C 1012.4 hPa Calm     90 % 0.0 mm
23:07 14.7 °C 13.1 °C 1012.4 hPa Calm     90 % 0.0 mm
23:12 14.6 °C 13.0 °C 1012.4 hPa Calm     90 % 0.0 mm
23:17 14.6 °C 13.1 °C 1012.1 hPa Calm     91 % 0.0 mm
23:22 14.4 °C 13.1 °C 1012.1 hPa Calm     92 % 0.0 mm
23:27 14.3 °C 12.9 °C 1012.4 hPa Calm     91 % 0.0 mm
23:32 14.1 °C 12.8 °C 1012.4 hPa Calm     92 % 0.0 mm
23:37 14.0 °C 12.7 °C 1012.4 hPa Calm     92 % 0.0 mm
23:42 13.9 °C 12.6 °C 1012.4 hPa Calm     92 % 0.0 mm
23:47 13.8 °C 12.5 °C 1012.4 hPa Calm     92 % 0.0 mm
23:57 13.5 °C 12.2 °C 1012.4 hPa Calm     92 % 0.0 mm
Meteo18
Compliments of Weather Underground - 4 mb

Script developed by  Jim McMurry - jmcmurry@mwt.net Adapted for the template by  Wim van der Kuil - Leuven-Template.eu

You find our weather info also at:

European Weather Network

Weather Underground

Equipment we use:

Weather-station
Davis Vue

Weather-program
Meteohub

Weather-server
Raspberry PI 2 B+

Provider
1 and 1

Davis Vue

Meteohub

Raspberry PI 2 B+

1 and 1